createdAt,value
2019-04-21T00:00:27.975Z,102724.06
2019-04-21T00:03:07.367Z,102718.66
2019-04-21T00:05:53.249Z,102712.52
2019-04-21T00:08:30.902Z,102712.52
2019-04-21T00:11:02.999Z,102718.91
2019-04-21T00:13:31.355Z,102718.91
2019-04-21T00:15:53.846Z,102698.05
2019-04-21T00:18:19.552Z,102698.05
2019-04-21T00:20:55.183Z,102694.95
2019-04-21T00:23:41.328Z,102695.70
2019-04-21T00:26:07.594Z,102689.25
2019-04-21T00:29:01.994Z,102693.16
2019-04-21T00:31:23.030Z,102690.25
2019-04-21T00:33:39.859Z,102679.62
2019-04-21T00:36:18.072Z,102679.62
2019-04-21T00:39:18.624Z,102674.19
2019-04-21T00:41:36.792Z,102674.19
2019-04-21T00:44:04.549Z,102666.45
2019-04-21T00:46:35.182Z,102669.29
2019-04-21T00:49:12.475Z,102663.91
2019-04-21T00:52:09.335Z,102661.94
2019-04-21T00:54:37.387Z,102661.94
2019-04-21T00:57:07.995Z,102661.58
2019-04-21T00:59:34.854Z,102659.64
2019-04-21T01:01:59.731Z,102651.13
2019-04-21T01:04:44.906Z,102651.13
2019-04-21T01:07:12.475Z,102654.70
2019-04-21T01:09:38.534Z,102643.50
2019-04-21T01:12:19.505Z,102643.50
2019-04-21T01:14:55.355Z,102637.79
2019-04-21T01:17:22.505Z,102643.34
2019-04-21T01:19:52.306Z,102643.34
2019-04-21T01:22:07.995Z,102638.03
2019-04-21T01:24:43.084Z,102641.44
2019-04-21T01:27:22.678Z,102645.31
2019-04-21T01:30:08.500Z,102644.47
2019-04-21T01:32:46.985Z,102648.51
2019-04-21T01:35:15.052Z,102648.51
2019-04-21T01:37:52.437Z,102634.58
2019-04-21T01:40:25.663Z,102634.58
2019-04-21T01:43:06.123Z,102631.06
2019-04-21T01:45:35.547Z,102626.64
2019-04-21T01:48:06.412Z,102632.34
2019-04-21T01:50:43.802Z,102629.53
2019-04-21T01:53:21.007Z,102628.20
2019-04-21T01:55:48.375Z,102622.03
2019-04-21T01:58:15.913Z,102610.95
2019-04-21T02:00:51.971Z,102610.95
2019-04-21T02:06:06.348Z,102604.34
2019-04-21T02:08:34.589Z,102593.66
2019-04-21T02:11:11.278Z,102593.66
2019-04-21T02:13:50.226Z,102601.89
2019-04-21T02:16:11.274Z,102601.30
2019-04-21T02:18:43.753Z,102593.91
2019-04-21T02:21:10.831Z,102594.53
2019-04-21T02:23:58.669Z,102598.64
2019-04-21T02:26:32.061Z,102582.20
2019-04-21T02:29:03.177Z,102583.48
2019-04-21T02:31:45.199Z,102580.09
2019-04-21T02:37:05.285Z,102576.03
2019-04-21T02:39:19.266Z,102571.29
2019-04-21T02:41:56.126Z,102571.45
2019-04-21T02:44:26.449Z,102564.39
2019-04-21T02:47:16.998Z,102564.39
2019-04-21T02:49:45.364Z,102563.77
2019-04-21T02:52:13.368Z,102560.84
2019-04-21T02:59:49.874Z,102546.91
2019-04-21T03:02:25.753Z,102540.20
2019-04-21T03:04:55.311Z,102540.20
2019-04-21T03:07:19.979Z,102543.80
2019-04-21T03:10:00.123Z,102543.80
2019-04-21T03:12:28.617Z,102535.05
2019-04-21T03:15:27.349Z,102535.05
2019-04-21T03:17:43.806Z,102532.10
2019-04-21T03:22:46.222Z,102527.69
2019-04-21T03:27:56.942Z,102511.58
2019-04-21T03:30:45.692Z,102510.23
2019-04-21T03:38:08.022Z,102493.55
2019-04-21T03:40:32.624Z,102493.55
2019-04-21T03:43:14.494Z,102492.47
2019-04-21T03:45:44.451Z,102494.20
2019-04-21T03:48:24.247Z,102495.14
2019-04-21T03:50:58.798Z,102495.14
2019-04-21T03:53:26.636Z,102489.21
2019-04-21T04:08:51.490Z,102485.38
2019-04-21T04:11:30.026Z,102485.38
2019-04-21T04:13:56.313Z,102487.88
2019-04-21T04:16:26.892Z,102476.36
2019-04-21T04:18:57.763Z,102468.56
2019-04-21T04:21:49.369Z,102468.56
2019-04-21T04:29:10.831Z,102464.86
2019-04-21T04:31:53.180Z,102464.86
2019-04-21T04:34:27.516Z,102472.52
2019-04-21T04:42:04.985Z,102470.23
2019-04-21T04:47:05.511Z,102473.78
2019-04-21T04:52:19.265Z,102471.31
2019-04-21T05:05:11.467Z,102480.31
2019-04-21T05:12:29.388Z,102471.02
2019-04-21T05:17:43.583Z,102470.40
2019-04-21T05:20:08.900Z,102463.77
2019-04-21T05:22:47.716Z,102463.77
2019-04-21T05:25:03.720Z,102458.67
2019-04-21T05:27:43.531Z,102462.77
2019-04-21T05:30:24.850Z,102461.03
2019-04-21T05:32:58.436Z,102456.98
2019-04-21T05:35:22.857Z,102457.19
2019-04-21T05:37:58.293Z,102460.19
2019-04-21T05:40:24.878Z,102460.19
2019-04-21T05:42:55.449Z,102458.25
2019-04-21T05:45:38.716Z,102457.09
2019-04-21T05:48:17.287Z,102457.09
2019-04-21T05:50:40.066Z,102456.28
2019-04-21T05:53:20.893Z,102454.15
2019-04-21T05:55:50.224Z,102456.03
2019-04-21T05:58:19.644Z,102454.41
2019-04-21T06:03:30.720Z,102452.52
2019-04-21T06:06:09.991Z,102458.08
2019-04-21T06:08:36.198Z,102450.09
2019-04-21T06:11:13.077Z,102450.09
2019-04-21T06:13:51.561Z,102456.11
2019-04-21T06:16:14.374Z,102458.75
2019-04-21T06:18:53.095Z,102458.75
2019-04-21T06:21:23.580Z,102459.17
2019-04-21T06:23:57.785Z,102454.34
2019-04-21T06:26:50.305Z,102446.27
2019-04-21T06:29:03.974Z,102448.84
2019-04-21T06:32:02.019Z,102456.31
2019-04-21T06:34:11.516Z,102456.31
2019-04-21T06:36:42.695Z,102452.57
2019-04-21T06:39:31.744Z,102452.57
2019-04-21T06:41:51.620Z,102456.16
2019-04-21T06:44:20.421Z,102466.33
2019-04-21T06:46:51.686Z,102467.59
2019-04-21T06:49:25.023Z,102460.56
2019-04-21T06:52:11.412Z,102463.20
2019-04-21T06:57:08.707Z,102464.41
2019-04-21T06:59:39.060Z,102457.14
2019-04-21T07:02:31.881Z,102445.54
2019-04-21T07:04:51.800Z,102445.54
2019-04-21T07:07:18.913Z,102445.55
2019-04-21T07:09:57.253Z,102445.30
2019-04-21T07:12:24.452Z,102452.08
2019-04-21T07:15:03.544Z,102446.99
2019-04-21T07:17:35.724Z,102446.99
2019-04-21T07:20:12.216Z,102445.88
2019-04-21T07:22:46.088Z,102452.72
2019-04-21T07:25:13.842Z,102452.72
2019-04-21T07:27:49.052Z,102450.20
2019-04-21T07:30:20.902Z,102450.20
2019-04-21T07:32:56.537Z,102446.13
2019-04-21T07:35:28.534Z,102445.56
2019-04-21T07:37:59.328Z,102448.48
2019-04-21T07:40:28.706Z,102446.77
2019-04-21T07:42:59.805Z,102446.77
2019-04-21T07:45:30.174Z,102441.55
2019-04-21T07:48:08.286Z,102437.88
2019-04-21T07:50:46.347Z,102437.88
2019-04-21T07:53:24.337Z,102435.26
2019-04-21T07:55:31.754Z,102437.15
2019-04-21T07:58:22.511Z,102426.57
2019-04-21T08:06:08.430Z,102421.38
2019-04-21T08:08:34.291Z,102421.38
2019-04-21T08:11:05.499Z,102421.66
2019-04-21T08:16:20.381Z,102432.52
2019-04-21T08:18:47.245Z,102432.52
2019-04-21T08:21:20.668Z,102438.23
2019-04-21T08:23:55.437Z,102445.93
2019-04-21T08:26:34.144Z,102441.02
2019-04-21T08:29:12.629Z,102446.63
2019-04-21T08:31:42.647Z,102436.55
2019-04-21T08:36:40.304Z,102434.11
2019-04-21T08:39:13.496Z,102433.61
2019-04-21T08:41:45.192Z,102429.11
2019-04-21T08:44:25.624Z,102441.39
2019-04-21T08:46:58.893Z,102448.48
2019-04-21T08:49:26.437Z,102453.33
2019-04-21T08:52:09.942Z,102444.87
2019-04-21T08:54:35.090Z,102446.22
2019-04-21T08:57:09.090Z,102446.22
2019-04-21T08:59:36.124Z,102433.66
2019-04-21T09:02:19.816Z,102430.19
2019-04-21T09:04:45.833Z,102430.19
2019-04-21T09:07:25.412Z,102424.27
2019-04-21T09:09:55.839Z,102427.12
2019-04-21T09:12:30.997Z,102427.31
2019-04-21T09:15:04.101Z,102414.78
2019-04-21T09:17:29.973Z,102411.83
2019-04-21T09:20:12.650Z,102417.16
2019-04-21T09:22:35.748Z,102390.44
2019-04-21T09:25:09.100Z,102383.05
2019-04-21T09:27:42.796Z,102383.70
2019-04-21T09:30:03.504Z,102380.16
2019-04-21T09:32:34.809Z,102370.91
2019-04-21T09:35:10.277Z,102366.14
2019-04-21T09:37:47.329Z,102365.21
2019-04-21T09:40:13.963Z,102360.16
2019-04-21T09:42:54.193Z,102355.20
2019-04-21T09:45:22.131Z,102350.30
2019-04-21T09:48:00.865Z,102344.66
2019-04-21T09:50:24.361Z,102337.70
2019-04-21T09:53:03.846Z,102337.70
2019-04-21T09:55:39.002Z,102340.11
2019-04-21T09:58:10.108Z,102340.22
2019-04-21T10:00:46.170Z,102333.31
2019-04-21T10:03:11.665Z,102329.55
2019-04-21T10:05:41.600Z,102326.62
2019-04-21T10:08:12.920Z,102324.14
2019-04-21T10:10:44.483Z,102313.20
2019-04-21T10:13:15.629Z,102313.20
2019-04-21T10:15:48.543Z,102305.52
2019-04-21T10:18:19.762Z,102305.52
2019-04-21T10:20:51.310Z,102303.30
2019-04-21T10:23:23.305Z,102304.73
2019-04-21T10:25:54.837Z,102300.80
2019-04-21T10:28:26.870Z,102290.11
2019-04-21T10:30:58.549Z,102291.35
2019-04-21T10:33:30.354Z,102291.35
2019-04-21T10:36:01.658Z,102289.85
2019-04-21T10:38:38.908Z,102287.58
2019-04-21T10:41:07.611Z,102282.13
2019-04-21T10:43:39.157Z,102278.03
2019-04-21T10:46:10.786Z,102278.03
2019-04-21T10:48:43.142Z,102279.20
2019-04-21T10:51:14.856Z,102281.56
2019-04-21T10:53:48.255Z,102269.01
2019-04-21T10:56:27.191Z,102265.16
2019-04-21T10:58:52.281Z,102270.47
2019-04-21T11:01:23.461Z,102270.83
2019-04-21T11:03:55.093Z,102258.67
2019-04-21T11:06:26.600Z,102252.55
2019-04-21T11:08:59.989Z,102253.22
2019-04-21T11:11:32.008Z,102249.23
2019-04-21T11:14:04.367Z,102238.25
2019-04-21T11:16:37.208Z,102243.69
2019-04-21T11:19:09.508Z,102234.70
2019-04-21T11:21:40.908Z,102233.95
2019-04-21T11:24:12.401Z,102235.72
2019-04-21T11:26:43.529Z,102222.08
2019-04-21T11:29:14.930Z,102219.05
2019-04-21T11:31:47.315Z,102226.56
2019-04-21T11:34:18.824Z,102212.75
2019-04-21T11:36:50.635Z,102207.30
2019-04-21T11:39:31.636Z,102203.20
2019-04-21T11:41:54.999Z,102200.86
2019-04-21T11:44:27.028Z,102205.94
2019-04-21T11:46:58.417Z,102204.67
2019-04-21T11:49:32.028Z,102189.70
2019-04-21T11:52:02.990Z,102191.70
2019-04-21T11:54:35.060Z,102187.42
2019-04-21T11:57:12.514Z,102179.51
2019-04-21T11:59:39.767Z,102175.38
2019-04-21T12:02:11.990Z,102170.94
2019-04-21T12:04:43.576Z,102168.47
2019-04-21T12:07:15.477Z,102174.44
2019-04-21T12:09:47.868Z,102163.02
2019-04-21T12:12:19.199Z,102161.77
2019-04-21T12:14:50.347Z,102172.38
2019-04-21T12:17:21.593Z,102166.00
2019-04-21T12:19:52.978Z,102151.05
2019-04-21T12:22:28.955Z,102151.05
2019-04-21T12:24:57.515Z,102142.33
2019-04-21T12:27:29.925Z,102141.77
2019-04-21T12:30:02.084Z,102132.36
2019-04-21T12:32:33.836Z,102132.36
2019-04-21T12:35:08.118Z,102116.16
2019-04-21T12:37:40.684Z,102116.16
2019-04-21T12:40:12.856Z,102115.33
2019-04-21T12:42:45.458Z,102122.22
2019-04-21T12:45:17.395Z,102112.62
2019-04-21T12:47:50.678Z,102112.80
2019-04-21T12:50:23.494Z,102108.44
2019-04-21T12:52:55.838Z,102107.40
2019-04-21T12:55:31.533Z,102101.70
2019-04-21T12:58:01.411Z,102097.63
2019-04-21T13:00:33.408Z,102094.45
2019-04-21T13:03:05.803Z,102086.89
2019-04-21T13:05:37.896Z,102083.97
2019-04-21T13:08:09.294Z,102078.86
2019-04-21T13:10:40.629Z,102073.03
2019-04-21T13:13:14.836Z,102076.66
2019-04-21T13:15:47.221Z,102065.20
2019-04-21T13:18:18.622Z,102056.61
2019-04-21T13:20:49.863Z,102052.77
2019-04-21T13:23:21.197Z,102054.76
2019-04-21T13:25:52.311Z,102042.11
2019-04-21T13:28:24.829Z,102041.95
2019-04-21T13:30:56.266Z,102035.63
2019-04-21T13:33:27.500Z,102029.89
2019-04-21T13:35:59.254Z,102024.09
2019-04-21T13:38:38.703Z,102024.09
2019-04-21T13:41:17.518Z,102022.98
2019-04-21T13:43:37.376Z,102021.59
2019-04-21T13:46:09.871Z,102014.07
2019-04-21T13:48:42.522Z,102014.07
2019-04-21T13:51:15.301Z,102008.30
2019-04-21T13:53:46.642Z,102008.30
2019-04-21T13:56:20.407Z,101996.59
2019-04-21T13:58:52.644Z,101997.80
2019-04-21T14:01:23.943Z,101994.48
2019-04-21T14:03:55.603Z,101994.30
2019-04-21T14:06:26.755Z,101994.30
2019-04-21T14:08:59.031Z,101983.52
2019-04-21T14:11:31.403Z,101973.02
2019-04-21T14:14:02.775Z,101973.02
2019-04-21T14:16:36.108Z,101976.72
2019-04-21T14:19:07.691Z,101978.20
2019-04-21T14:21:39.163Z,101968.98
2019-04-21T14:24:10.901Z,101952.62
2019-04-21T14:26:42.473Z,101952.62
2019-04-21T14:29:15.543Z,101949.30
2019-04-21T14:31:48.096Z,101946.10
2019-04-21T14:34:19.960Z,101935.80
2019-04-21T14:36:51.166Z,101938.00
2019-04-21T14:39:22.915Z,101928.73
2019-04-21T14:41:54.252Z,101928.73
2019-04-21T14:44:27.118Z,101921.50
2019-04-21T14:46:58.572Z,101921.50
2019-04-21T14:49:30.971Z,101919.42
2019-04-21T14:52:03.233Z,101920.47
2019-04-21T14:54:34.333Z,101914.69
2019-04-21T14:57:05.667Z,101909.02
2019-04-21T14:59:37.299Z,101909.02
2019-04-21T15:02:09.842Z,101884.68
2019-04-21T15:04:41.753Z,101884.68
2019-04-21T15:07:13.179Z,101880.25
2019-04-21T15:09:44.695Z,101860.91
2019-04-21T15:12:18.273Z,101866.83
2019-04-21T15:14:49.910Z,101857.90
2019-04-21T15:17:23.023Z,101848.02
2019-04-21T15:19:59.792Z,101845.12
2019-04-21T15:22:28.325Z,101837.89
2019-04-21T15:25:00.631Z,101837.89
2019-04-21T15:27:32.776Z,101833.11
2019-04-21T15:30:05.007Z,101831.82
2019-04-21T15:32:36.764Z,101831.41
2019-04-21T15:35:09.175Z,101834.34
2019-04-21T15:37:42.076Z,101827.06
2019-04-21T15:40:24.094Z,101825.38
2019-04-21T15:42:48.438Z,101814.70
2019-04-21T15:45:20.992Z,101815.30
2019-04-21T15:47:53.948Z,101810.34
2019-04-21T15:50:26.513Z,101807.86
2019-04-21T15:52:58.258Z,101807.86
2019-04-21T15:55:30.774Z,101800.75
2019-04-21T15:58:02.715Z,101800.75
2019-04-21T16:00:34.336Z,101799.80
2019-04-21T16:03:06.684Z,101793.78
2019-04-21T16:05:38.119Z,101794.17
2019-04-21T16:08:10.144Z,101783.72
2019-04-21T16:10:48.937Z,101782.70
2019-04-21T16:13:16.024Z,101782.70
2019-04-21T16:15:48.427Z,101774.09
2019-04-21T16:18:20.484Z,101774.09
2019-04-21T16:20:53.713Z,101764.63
2019-04-21T16:23:24.872Z,101766.66
2019-04-21T16:25:57.041Z,101768.48
2019-04-21T16:28:29.017Z,101760.33
2019-04-21T16:31:00.588Z,101760.33
2019-04-21T16:33:31.679Z,101759.15
2019-04-21T16:36:03.180Z,101752.31
2019-04-21T16:38:35.488Z,101749.75
2019-04-21T16:41:11.613Z,101748.50
2019-04-21T16:43:40.993Z,101745.61
2019-04-21T16:46:13.644Z,101737.33
2019-04-21T16:48:46.012Z,101737.33
2019-04-21T16:51:18.208Z,101731.06
2019-04-21T16:53:50.292Z,101731.06
2019-04-21T16:56:22.640Z,101730.72
2019-04-21T16:58:54.735Z,101734.55
2019-04-21T17:01:27.643Z,101732.70
2019-04-21T17:04:00.308Z,101726.48
2019-04-21T17:06:33.166Z,101724.02
2019-04-21T17:09:05.239Z,101722.53
2019-04-21T17:11:38.034Z,101716.82
2019-04-21T17:14:30.067Z,101713.30
2019-04-21T17:17:14.191Z,101710.90
2019-04-21T17:19:24.137Z,101709.88
2019-04-21T17:21:49.883Z,101707.27
2019-04-21T17:24:22.192Z,101704.81
2019-04-21T17:26:53.663Z,101704.81
2019-04-21T17:29:26.322Z,101698.84
2019-04-21T17:31:59.441Z,101696.47
2019-04-21T17:34:33.708Z,101696.47
2019-04-21T17:37:05.529Z,101697.33
2019-04-21T17:39:36.882Z,101703.58
2019-04-21T17:42:18.542Z,101696.88
2019-04-21T17:44:41.298Z,101696.88
2019-04-21T17:47:25.359Z,101691.50
2019-04-21T17:49:46.736Z,101695.09
2019-04-21T17:52:20.325Z,101688.75
2019-04-21T17:54:54.320Z,101689.80
2019-04-21T17:57:42.619Z,101689.24
2019-04-21T18:00:23.954Z,101687.97
2019-04-21T18:02:54.770Z,101687.97
2019-04-21T18:05:27.586Z,101684.75
2019-04-21T18:07:55.866Z,101689.04
2019-04-21T18:10:25.757Z,101689.04
2019-04-21T18:12:55.543Z,101687.28
2019-04-21T18:15:36.332Z,101688.47
2019-04-21T18:17:50.485Z,101678.31
2019-04-21T18:20:21.946Z,101678.31
2019-04-21T18:22:55.016Z,101686.31
2019-04-21T18:25:40.348Z,101683.30
2019-04-21T18:28:00.743Z,101683.30
2019-04-21T18:30:46.580Z,101687.55
2019-04-21T18:33:26.617Z,101683.72
2019-04-21T18:35:54.378Z,101680.09
2019-04-21T18:38:35.326Z,101683.28
2019-04-21T18:40:58.415Z,101683.83
2019-04-21T18:43:56.731Z,101679.29
2019-04-21T18:46:26.053Z,101680.56
2019-04-21T18:48:43.691Z,101679.94
2019-04-21T18:51:13.933Z,101674.84
2019-04-21T18:53:58.031Z,101678.78
2019-04-21T18:56:18.634Z,101678.78
2019-04-21T18:58:48.715Z,101688.72
2019-04-21T19:01:25.926Z,101688.72
2019-04-21T19:03:55.975Z,101686.00
2019-04-21T19:06:42.350Z,101681.57
2019-04-21T19:09:16.794Z,101682.41
2019-04-21T19:11:51.854Z,101688.17
2019-04-21T19:14:43.136Z,101688.17
2019-04-21T19:17:10.727Z,101684.56
2019-04-21T19:22:04.894Z,101693.45
2019-04-21T19:24:55.620Z,101694.75
2019-04-21T19:27:12.141Z,101694.75
2019-04-21T19:29:45.239Z,101697.43
2019-04-21T19:32:22.135Z,101692.75
2019-04-21T19:34:34.766Z,101693.89
2019-04-21T19:37:09.331Z,101697.90
2019-04-21T19:39:53.034Z,101692.56
2019-04-21T19:42:19.578Z,101692.45
2019-04-21T19:44:59.329Z,101692.45
2019-04-21T19:47:35.456Z,101690.81
2019-04-21T19:50:06.197Z,101688.89
2019-04-21T19:52:34.071Z,101688.54
2019-04-21T19:54:56.761Z,101688.54
2019-04-21T19:57:29.384Z,101680.77
2019-04-21T20:00:04.250Z,101680.77
2019-04-21T20:02:34.369Z,101679.64
2019-04-21T20:05:11.602Z,101679.64
2019-04-21T20:07:56.036Z,101677.00
2019-04-21T20:10:33.253Z,101674.35
2019-04-21T20:13:07.237Z,101677.50
2019-04-21T20:15:42.225Z,101669.75
2019-04-21T20:18:04.732Z,101669.22
2019-04-21T20:20:25.210Z,101669.22
2019-04-21T20:22:57.566Z,101659.88
2019-04-21T20:25:34.366Z,101659.88
2019-04-21T20:28:09.542Z,101661.88
2019-04-21T20:30:55.687Z,101661.88
2019-04-21T20:33:49.291Z,101658.34
2019-04-21T20:36:01.302Z,101656.47
2019-04-21T20:38:27.584Z,101656.47
2019-04-21T20:40:53.585Z,101659.26
2019-04-21T20:43:54.592Z,101658.08
2019-04-21T20:46:25.359Z,101658.08
2019-04-21T20:48:42.170Z,101656.28
2019-04-21T20:51:18.282Z,101657.05
2019-04-21T20:53:46.479Z,101661.31
2019-04-21T20:56:15.633Z,101657.69
2019-04-21T20:58:58.390Z,101657.69
2019-04-21T21:01:34.712Z,101659.48
2019-04-21T21:03:59.216Z,101662.42
2019-04-21T21:06:33.686Z,101657.36
2019-04-21T21:09:06.871Z,101657.36
2019-04-21T21:11:46.728Z,101654.92
2019-04-21T21:14:16.131Z,101654.67
2019-04-21T21:16:54.983Z,101653.36
2019-04-21T21:19:43.972Z,101648.48
2019-04-21T21:21:48.657Z,101647.98
2019-04-21T21:24:38.311Z,101646.31
2019-04-21T21:26:58.055Z,101644.73
2019-04-21T21:29:33.522Z,101648.70
2019-04-21T21:32:18.512Z,101638.12
2019-04-21T21:34:45.388Z,101637.37
2019-04-21T21:37:21.246Z,101637.37
2019-04-21T21:39:53.454Z,101638.27
2019-04-21T21:42:07.175Z,101633.34
2019-04-21T21:44:40.771Z,101633.38
2019-04-21T21:47:23.993Z,101633.38
2019-04-21T21:49:55.463Z,101634.11
2019-04-21T21:52:30.481Z,101636.45
2019-04-21T21:54:49.699Z,101633.66
2019-04-21T21:57:20.968Z,101633.66
2019-04-21T21:59:58.856Z,101636.78
2019-04-21T22:02:34.933Z,101636.78
2019-04-21T22:05:07.586Z,101623.60
2019-04-21T22:07:33.715Z,101623.60
2019-04-21T22:10:06.429Z,101628.67
2019-04-21T22:12:45.716Z,101628.67
2019-04-21T22:15:18.581Z,101625.47
2019-04-21T22:18:06.068Z,101623.13
2019-04-21T22:20:40.128Z,101627.39
2019-04-21T22:22:59.002Z,101627.39
2019-04-21T22:25:29.536Z,101624.09
2019-04-21T22:27:57.904Z,101624.36
2019-04-21T22:30:37.098Z,101619.84
2019-04-21T22:33:08.342Z,101616.16
2019-04-21T22:35:42.605Z,101617.31
2019-04-21T22:38:24.737Z,101619.75
2019-04-21T22:40:55.949Z,101619.75
2019-04-21T22:43:21.699Z,101609.34
2019-04-21T22:45:49.406Z,101609.34
2019-04-21T22:48:24.594Z,101620.43
2019-04-21T22:50:53.792Z,101615.91
2019-04-21T22:53:27.992Z,101609.03
2019-04-21T22:56:05.757Z,101612.13
2019-04-21T22:58:35.730Z,101612.13
2019-04-21T23:01:06.134Z,101608.45
2019-04-21T23:03:40.153Z,101600.78
2019-04-21T23:06:19.484Z,101605.83
2019-04-21T23:08:46.136Z,101605.83
2019-04-21T23:11:18.116Z,101600.81
2019-04-21T23:13:55.620Z,101600.81
2019-04-21T23:16:31.529Z,101595.53
2019-04-21T23:19:17.276Z,101589.87
2019-04-21T23:21:51.531Z,101589.87
2019-04-21T23:24:26.459Z,101591.00
2019-04-21T23:26:48.645Z,101584.28
2019-04-21T23:29:38.791Z,101585.03
2019-04-21T23:32:01.913Z,101577.93
2019-04-21T23:34:20.815Z,101577.93
2019-04-21T23:36:59.024Z,101568.78
2019-04-21T23:39:26.529Z,101568.78
2019-04-21T23:41:55.899Z,101571.63
2019-04-21T23:44:28.224Z,101571.63
2019-04-21T23:47:03.474Z,101572.67
2019-04-21T23:49:43.054Z,101566.66
2019-04-21T23:52:10.097Z,101565.92
2019-04-21T23:54:38.530Z,101558.07
2019-04-21T23:57:17.011Z,101557.95
2019-04-21T23:59:46.868Z,101557.95
